Time;durP1;ratioP1;P1;durP2;ratioP2;P2;SDS_P1;SDS_P2;PMS_P1;PMS_P2;Temp;Humidity;BMP_temperature;BMP_pressure;BME280_temperature;BME280_humidity;BME280_pressure;Samples;Min_cycle;Max_cycle;Signal;HPM_P1;HPM_P2
2022/11/11 00:01:01;;;;;;;12.87;7.57;;;20.60;57.20;;;;;;5129546;27;20459;-80
2022/11/11 00:03:31;;;;;;;12.23;7.30;;;20.60;57.40;;;;;;5124218;27;20534;-80
2022/11/11 00:06:03;;;;;;;13.60;7.27;;;20.60;57.40;;;;;;5119041;27;20448;-80
2022/11/11 00:08:31;;;;;;;12.20;6.73;;;20.60;57.30;;;;;;5124854;27;20452;-80
2022/11/11 00:11:03;;;;;;;11.57;7.37;;;20.50;57.20;;;;;;5122964;27;20451;-80
2022/11/11 00:13:31;;;;;;;12.80;7.50;;;20.60;57.30;;;;;;5130672;27;20467;-79
2022/11/11 00:16:04;;;;;;;11.17;6.60;;;20.60;57.30;;;;;;5124406;27;20447;-80
2022/11/11 00:27:09;;;;;;;9.30;6.67;;;20.50;57.30;;;;;;5107722;27;20449;-80
2022/11/11 00:29:37;;;;;;;14.27;7.03;;;20.50;57.40;;;;;;5119589;28;20521;-80
2022/11/11 00:37:30;;;;;;;10.00;6.50;;;20.50;57.40;;;;;;5114493;28;20478;-80
2022/11/11 00:39:58;;;;;;;10.87;6.67;;;20.50;57.40;;;;;;5117527;28;20436;-80
2022/11/11 00:42:26;;;;;;;13.63;6.63;;;20.50;57.40;;;;;;5121104;27;20479;-80
2022/11/11 00:44:55;;;;;;;10.77;6.17;;;20.40;57.50;;;;;;5117389;27;20520;-80
2022/11/11 00:52:58;;;;;;;10.10;5.83;;;20.40;57.40;;;;;;5106896;28;20425;-80
2022/11/11 00:55:26;;;;;;;10.93;5.87;;;20.40;57.60;;;;;;5128985;27;20497;-80
2022/11/11 00:57:54;;;;;;;9.10;5.47;;;20.40;57.60;;;;;;5117675;28;20439;-80
2022/11/11 01:00:22;;;;;;;8.37;5.30;;;20.40;57.60;;;;;;5116117;28;20444;-81
2022/11/11 01:02:50;;;;;;;10.47;5.77;;;20.40;57.40;;;;;;5117046;28;20475;-80
2022/11/11 01:05:20;;;;;;;8.80;5.77;;;20.40;57.40;;;;;;5117578;28;20543;-81
2022/11/11 01:07:49;;;;;;;10.13;5.57;;;20.40;57.30;;;;;;5117033;28;20471;-81
2022/11/11 01:10:37;;;;;;;19.20;5.70;;;20.30;57.40;;;;;;5116802;28;20525;-80
2022/11/11 01:13:14;;;;;;;8.67;5.07;;;20.30;57.50;;;;;;5114678;28;20513;-80
2022/11/11 01:15:43;;;;;;;8.73;5.23;;;20.30;57.40;;;;;;5125424;28;20458;-80
2022/11/11 01:18:11;;;;;;;10.00;5.20;;;20.30;57.40;;;;;;5119243;28;20862;-80
2022/11/11 01:20:41;;;;;;;6.03;4.87;;;20.30;57.40;;;;;;5120182;28;20453;-81
2022/11/11 01:23:10;;;;;;;6.20;4.90;;;20.30;57.40;;;;;;5119192;28;20496;-80
2022/11/11 01:25:39;;;;;;;6.33;4.87;;;20.30;57.30;;;;;;5125220;28;20448;-80
2022/11/11 01:28:07;;;;;;;6.03;4.60;;;20.30;57.20;;;;;;5113348;28;20453;-80
2022/11/11 01:30:35;;;;;;;9.43;5.10;;;20.30;57.30;;;;;;5127944;28;20448;-80
2022/11/11 01:33:04;;;;;;;10.13;4.97;;;20.30;57.30;;;;;;5122639;27;20467;-81
2022/11/11 01:35:32;;;;;;;9.10;4.93;;;20.30;57.30;;;;;;5114003;27;20452;-80
2022/11/11 01:38:01;;;;;;;8.37;5.20;;;20.30;57.30;;;;;;5110174;27;20458;-80
2022/11/11 01:40:29;;;;;;;8.50;5.30;;;20.30;57.40;;;;;;5119937;27;20441;-80
2022/11/11 01:43:22;;;;;;;12.63;5.80;;;20.20;57.40;;;;;;5126585;27;20466;-81
2022/11/11 01:45:54;;;;;;;6.40;4.37;;;20.30;57.40;;;;;;5129671;27;20458;-80
2022/11/11 01:51:15;;;;;;;6.77;4.63;;;20.20;57.40;;;;;;5116608;28;20455;-80
2022/11/11 01:53:44;;;;;;;8.37;4.70;;;20.20;57.40;;;;;;5120445;27;20467;-81
2022/11/11 01:56:12;;;;;;;8.10;5.10;;;20.20;57.40;;;;;;5120435;27;20454;-80
2022/11/11 01:58:40;;;;;;;9.10;4.57;;;20.20;57.40;;;;;;5112858;28;20539;-82
2022/11/11 02:01:08;;;;;;;8.97;4.53;;;20.20;57.50;;;;;;5118987;27;20437;-82
2022/11/11 02:03:39;;;;;;;10.17;4.90;;;20.20;57.50;;;;;;5130446;27;20543;-82
2022/11/11 02:06:06;;;;;;;5.83;5.00;;;20.10;57.40;;;;;;5124900;27;20481;-82
2022/11/11 02:08:35;;;;;;;8.23;4.20;;;20.10;57.60;;;;;;5124825;27;20453;-83
2022/11/11 02:11:07;;;;;;;7.00;4.57;;;20.10;57.50;;;;;;5124228;27;20451;-82
2022/11/11 02:16:23;;;;;;;11.60;4.40;;;20.10;57.50;;;;;;5112239;27;20533;-83
2022/11/11 02:18:52;;;;;;;7.37;4.87;;;20.10;57.70;;;;;;5131664;27;20459;-82
2022/11/11 02:21:24;;;;;;;6.63;4.27;;;20.00;57.60;;;;;;5121574;27;20515;-82
2022/11/11 02:23:58;;;;;;;6.13;4.30;;;20.10;57.60;;;;;;5116730;27;20482;-82
2022/11/11 02:26:26;;;;;;;5.50;4.27;;;20.00;57.70;;;;;;5115765;27;20505;-81
2022/11/11 02:28:54;;;;;;;6.20;4.57;;;20.00;57.70;;;;;;5132010;27;20447;-81
2022/11/11 02:31:26;;;;;;;5.90;4.33;;;20.00;57.80;;;;;;5113894;27;20461;-81
2022/11/11 02:33:54;;;;;;;4.93;4.17;;;20.00;57.80;;;;;;5118699;27;20493;-80
2022/11/11 02:36:22;;;;;;;5.67;3.53;;;19.90;57.70;;;;;;5113658;27;20474;-81
2022/11/11 02:38:51;;;;;;;10.00;4.27;;;20.00;57.80;;;;;;5107508;27;20471;-81
2022/11/11 02:44:05;;;;;;;7.87;4.40;;;20.00;57.90;;;;;;5117490;27;20475;-80
2022/11/11 02:46:34;;;;;;;6.33;3.90;;;19.90;58.00;;;;;;5122882;27;20448;-80
2022/11/11 02:49:02;;;;;;;5.97;4.30;;;19.90;58.00;;;;;;5126446;27;20447;-80
2022/11/11 02:51:30;;;;;;;7.37;4.80;;;19.90;58.00;;;;;;5125690;27;20451;-80
2022/11/11 02:53:58;;;;;;;6.00;4.70;;;19.90;58.00;;;;;;5127297;27;20459;-80
2022/11/11 02:59:13;;;;;;;3.93;3.10;;;19.80;57.90;;;;;;5124433;27;20452;-80
2022/11/11 03:01:41;;;;;;;5.33;4.33;;;19.80;58.20;;;;;;5114989;27;20451;-80
2022/11/11 03:04:10;;;;;;;7.40;4.50;;;19.80;58.10;;;;;;5120998;27;20479;-81
2022/11/11 03:06:38;;;;;;;7.30;4.30;;;19.80;58.10;;;;;;5114162;27;20459;-81
2022/11/11 03:09:07;;;;;;;5.83;3.90;;;19.80;58.20;;;;;;5107728;28;20497;-80
2022/11/11 03:11:37;;;;;;;4.53;3.90;;;19.80;58.30;;;;;;5123704;27;20439;-81
2022/11/11 03:14:05;;;;;;;7.20;4.00;;;19.80;58.20;;;;;;5119377;27;20471;-81
2022/11/11 03:19:19;;;;;;;5.10;4.50;;;19.80;58.30;;;;;;5118069;27;20480;-81
2022/11/11 03:21:47;;;;;;;5.77;3.87;;;19.80;58.30;;;;;;5111562;27;20514;-80
2022/11/11 03:27:23;;;;;;;6.00;4.10;;;19.80;58.50;;;;;;5114305;27;20452;-80
2022/11/11 03:29:51;;;;;;;5.53;4.00;;;19.80;58.40;;;;;;5120859;27;20450;-81
2022/11/11 03:32:19;;;;;;;10.73;4.40;;;19.80;58.40;;;;;;5124958;27;20463;-81
2022/11/11 03:34:48;;;;;;;5.03;4.10;;;19.80;58.40;;;;;;5111627;27;20471;-81
2022/11/11 03:40:02;;;;;;;9.10;3.80;;;19.70;58.40;;;;;;5125432;27;20543;-80
2022/11/11 03:42:31;;;;;;;4.53;3.87;;;19.80;58.50;;;;;;5120157;27;20448;-80
2022/11/11 03:44:59;;;;;;;7.13;3.83;;;19.80;58.40;;;;;;5130565;27;20490;-81
2022/11/11 03:47:27;;;;;;;6.50;3.90;;;19.80;58.50;;;;;;5112376;27;20445;-81
2022/11/11 03:49:55;;;;;;;5.00;3.70;;;19.80;58.50;;;;;;5116329;27;20448;-81
2022/11/11 03:52:23;;;;;;;4.60;4.20;;;19.80;58.40;;;;;;5119368;27;20436;-80
2022/11/11 03:54:51;;;;;;;4.53;3.70;;;19.80;58.30;;;;;;5122312;27;20460;-80
2022/11/11 03:57:31;;;;;;;6.20;4.27;;;19.80;58.30;;;;;;5105706;27;20454;-80
2022/11/11 04:00:01;;;;;;;5.30;4.10;;;19.80;58.30;;;;;;5124952;27;20443;-80
2022/11/11 04:10:46;;;;;;;6.53;4.10;;;19.70;58.40;;;;;;5121386;27;20447;-81
2022/11/11 04:16:07;;;;;;;5.10;4.07;;;19.70;58.50;;;;;;5129221;27;20447;-80
2022/11/11 04:25:47;;;;;;;6.07;4.43;;;19.70;58.40;;;;;;5114684;27;20475;-81
2022/11/11 04:26:54;;;;;;;5.33;3.90;;;19.70;58.20;;;;;;5102989;28;20448;-81
2022/11/11 04:29:28;;;;;;;5.93;4.23;;;19.70;58.40;;;;;;5121487;27;20472;-80
2022/11/11 04:34:45;;;;;;;4.53;4.13;;;19.70;58.20;;;;;;5117864;27;20467;-81
2022/11/11 04:37:13;;;;;;;5.87;4.63;;;19.70;58.30;;;;;;5114596;28;20450;-80
2022/11/11 04:42:27;;;;;;;6.63;3.63;;;19.70;58.30;;;;;;5110628;27;20442;-80
2022/11/11 04:47:54;;;;;;;5.60;3.90;;;19.70;58.30;;;;;;5119025;28;20436;-81
2022/11/11 04:50:22;;;;;;;5.30;4.17;;;19.70;58.30;;;;;;5123327;27;20443;-80
2022/11/11 04:52:50;;;;;;;6.80;3.90;;;19.70;58.30;;;;;;5116958;28;20441;-80
2022/11/11 04:58:03;;;;;;;4.50;3.40;;;19.70;58.40;;;;;;5118391;28;20440;-81
2022/11/11 05:00:31;;;;;;;8.90;3.53;;;19.70;58.50;;;;;;5118095;28;20458;-81
2022/11/11 05:03:14;;;;;;;4.57;3.80;;;19.70;58.50;;;;;;5127966;28;20802;-81
2022/11/11 05:11:29;;;;;;;8.13;3.63;;;19.70;58.60;;;;;;5048720;28;20443;-81
2022/11/11 05:22:18;;;;;;;4.83;3.97;;;19.70;58.50;;;;;;5131599;27;20447;-81
2022/11/11 05:27:31;;;;;;;5.47;3.87;;;19.60;58.70;;;;;;5121020;27;20502;-81
2022/11/11 05:29:59;;;;;;;3.53;3.23;;;19.70;58.70;;;;;;5123050;27;20451;-81
2022/11/11 05:32:28;;;;;;;4.40;4.00;;;19.70;58.60;;;;;;5119657;27;20520;-81
2022/11/11 05:34:57;;;;;;;5.63;3.87;;;19.70;58.50;;;;;;5124320;27;20520;-81
2022/11/11 05:37:25;;;;;;;3.63;3.30;;;19.70;58.50;;;;;;5122816;27;20447;-82
2022/11/11 05:39:52;;;;;;;8.33;3.93;;;19.70;58.50;;;;;;5126845;27;20448;-82
2022/11/11 05:42:21;;;;;;;6.23;4.50;;;19.70;58.40;;;;;;5136673;27;20492;-82
2022/11/11 05:44:49;;;;;;;5.30;4.30;;;19.70;58.30;;;;;;5122325;27;20467;-80
2022/11/11 05:47:17;;;;;;;7.23;4.60;;;19.70;58.30;;;;;;5126214;27;20448;-81
2022/11/11 05:49:45;;;;;;;5.37;4.70;;;19.70;58.30;;;;;;5115772;27;20435;-81
2022/11/11 05:52:16;;;;;;;5.77;4.70;;;19.60;58.30;;;;;;5111760;28;20500;-79
2022/11/11 05:54:44;;;;;;;6.83;4.30;;;19.70;58.30;;;;;;5121716;27;20454;-80
2022/11/11 05:57:12;;;;;;;5.50;4.70;;;19.70;58.30;;;;;;5124738;27;20438;-80
2022/11/11 05:59:40;;;;;;;9.57;4.60;;;19.70;58.30;;;;;;5128186;27;20452;-80
2022/11/11 06:02:09;;;;;;;6.23;4.67;;;19.70;58.30;;;;;;5122921;27;20930;-81
2022/11/11 06:04:37;;;;;;;7.17;3.80;;;19.70;58.40;;;;;;5120264;27;20536;-80
2022/11/11 06:07:05;;;;;;;7.53;4.77;;;19.70;58.40;;;;;;5111024;27;20453;-81
2022/11/11 06:09:34;;;;;;;7.50;4.80;;;19.70;58.40;;;;;;5123594;27;20451;-81
2022/11/11 06:12:03;;;;;;;5.80;4.33;;;19.70;58.30;;;;;;5122112;27;20457;-80
2022/11/11 06:14:31;;;;;;;6.30;4.30;;;19.60;58.30;;;;;;5126990;27;20990;-80
2022/11/11 06:16:59;;;;;;;5.73;4.90;;;19.60;58.40;;;;;;5116968;28;20444;-81
2022/11/11 06:19:27;;;;;;;6.00;4.60;;;19.60;58.30;;;;;;5125836;27;20442;-80
2022/11/11 06:21:59;;;;;;;5.73;4.33;;;19.60;58.40;;;;;;5120682;28;20447;-81
2022/11/11 06:24:27;;;;;;;7.27;4.20;;;19.60;58.30;;;;;;5120489;28;20471;-80
2022/11/11 06:26:56;;;;;;;4.63;4.10;;;19.60;58.40;;;;;;5117999;28;20469;-81
2022/11/11 06:29:25;;;;;;;5.97;4.43;;;19.60;58.40;;;;;;5129364;28;20450;-81
2022/11/11 06:31:52;;;;;;;6.17;4.40;;;19.70;58.50;;;;;;5120280;28;20450;-80
2022/11/11 06:34:20;;;;;;;7.50;4.33;;;19.70;58.40;;;;;;5110157;28;20468;-80
2022/11/11 06:36:48;;;;;;;8.47;4.10;;;19.70;58.40;;;;;;5125243;28;20452;-80
2022/11/11 06:39:16;;;;;;;6.77;4.53;;;19.70;58.20;;;;;;5126756;28;20532;-80
2022/11/11 06:41:44;;;;;;;7.10;4.77;;;19.70;58.40;;;;;;5111519;28;20453;-80
2022/11/11 06:44:14;;;;;;;7.47;4.43;;;19.70;58.40;;;;;;5121746;28;20463;-81
2022/11/11 06:46:42;;;;;;;5.70;4.80;;;19.70;58.40;;;;;;5121213;28;20426;-81
2022/11/11 06:49:10;;;;;;;7.30;4.30;;;19.70;58.50;;;;;;5135736;28;20451;-80
2022/11/11 06:51:38;;;;;;;4.97;4.40;;;19.70;58.50;;;;;;5110328;28;20449;-80
2022/11/11 06:54:06;;;;;;;7.17;4.80;;;19.70;58.50;;;;;;5114997;28;20479;-80
2022/11/11 06:56:34;;;;;;;6.60;4.50;;;19.70;58.30;;;;;;5113827;28;20463;-80
2022/11/11 06:59:02;;;;;;;5.00;4.50;;;19.70;58.60;;;;;;5131764;28;20447;-80
2022/11/11 07:01:31;;;;;;;7.23;4.30;;;19.70;58.40;;;;;;5119937;28;20447;-81
2022/11/11 07:03:59;;;;;;;5.73;4.03;;;19.70;58.40;;;;;;5114372;28;20471;-81
2022/11/11 07:06:27;;;;;;;4.93;4.40;;;19.70;58.60;;;;;;5119033;28;20467;-80
2022/11/11 07:08:56;;;;;;;8.30;4.80;;;19.60;58.40;;;;;;5123320;28;20536;-80
2022/11/11 07:11:24;;;;;;;4.87;4.47;;;19.60;58.40;;;;;;5115238;28;20451;-80
2022/11/11 07:13:52;;;;;;;6.43;4.23;;;19.60;58.40;;;;;;5075286;28;1060345;-81
2022/11/11 07:16:20;;;;;;;6.73;4.87;;;19.60;58.40;;;;;;5115816;27;20191;-81
2022/11/11 07:18:49;;;;;;;6.00;4.57;;;19.70;58.50;;;;;;5137945;27;20530;-80
2022/11/11 07:21:17;;;;;;;8.23;4.80;;;19.70;58.40;;;;;;5129052;27;20443;-81
2022/11/11 07:23:45;;;;;;;5.43;4.80;;;19.70;58.40;;;;;;5129590;27;20467;-81
2022/11/11 07:26:13;;;;;;;7.23;4.67;;;19.70;58.30;;;;;;5123197;27;20497;-81
2022/11/11 07:28:41;;;;;;;8.30;4.80;;;19.70;58.50;;;;;;5119082;27;20724;-81
2022/11/11 07:31:09;;;;;;;7.20;4.60;;;19.70;58.30;;;;;;5110349;27;20460;-81
2022/11/11 07:33:37;;;;;;;6.20;4.70;;;19.70;58.40;;;;;;5111120;27;20479;-80
2022/11/11 07:36:07;;;;;;;6.80;4.80;;;19.70;58.40;;;;;;5111262;27;20453;-80
2022/11/11 07:38:35;;;;;;;5.80;4.47;;;19.70;58.30;;;;;;5111300;27;20451;-82
2022/11/11 07:41:04;;;;;;;7.70;4.20;;;19.70;58.40;;;;;;5126638;27;20464;-80
2022/11/11 07:43:32;;;;;;;6.73;4.73;;;19.70;58.30;;;;;;5120798;27;20957;-81
2022/11/11 07:46:00;;;;;;;5.07;4.53;;;19.70;58.40;;;;;;5107241;28;20468;-81
2022/11/11 07:48:28;;;;;;;5.67;4.63;;;19.70;58.40;;;;;;5116137;27;20444;-82
2022/11/11 07:50:56;;;;;;;5.30;4.10;;;19.70;58.40;;;;;;5125214;27;20445;-81
2022/11/11 07:53:27;;;;;;;4.63;4.17;;;19.80;58.40;;;;;;5126289;27;20455;-80
2022/11/11 07:55:55;;;;;;;4.87;4.13;;;19.70;58.30;;;;;;5117100;27;20452;-81
2022/11/11 07:58:23;;;;;;;5.40;4.53;;;19.80;58.40;;;;;;5130401;27;20451;-81
2022/11/11 08:00:52;;;;;;;4.63;3.83;;;19.80;59.00;;;;;;5119301;27;20455;-80
2022/11/11 08:03:20;;;;;;;6.50;4.13;;;19.80;58.40;;;;;;5118296;27;20452;-81
2022/11/11 08:05:48;;;;;;;15.33;8.93;;;19.80;58.30;;;;;;5126733;27;20450;-82
2022/11/11 08:08:16;;;;;;;16.80;10.53;;;19.10;59.40;;;;;;5112989;27;20459;-82
2022/11/11 08:10:46;;;;;;;21.40;11.17;;;18.00;63.70;;;;;;5116696;27;20446;-79
2022/11/11 08:16:01;;;;;;;25.03;12.20;;;17.00;66.30;;;;;;5118238;28;20448;-81
2022/11/11 08:18:29;;;;;;;25.20;12.90;;;16.60;67.50;;;;;;5115375;28;20564;-80
2022/11/11 08:20:58;;;;;;;26.33;12.67;;;16.40;68.00;;;;;;5119902;27;20458;-80
2022/11/11 08:23:32;;;;;;;22.00;13.37;;;16.20;68.30;;;;;;5112223;27;20444;-80
2022/11/11 08:26:21;;;;;;;20.40;12.67;;;16.10;69.10;;;;;;5111556;27;20468;-80
2022/11/11 08:28:56;;;;;;;27.13;12.80;;;15.70;69.60;;;;;;5104390;28;20451;-79
2022/11/11 08:31:24;;;;;;;18.40;12.37;;;15.80;70.50;;;;;;5116240;28;20451;-81
2022/11/11 08:33:53;;;;;;;20.03;12.90;;;16.00;70.50;;;;;;5115957;28;20464;-81
2022/11/11 08:36:22;;;;;;;20.90;12.90;;;15.90;70.80;;;;;;5125482;27;20439;-79
2022/11/11 08:38:50;;;;;;;30.03;13.77;;;15.70;71.80;;;;;;5108163;28;20440;-81
2022/11/11 08:41:20;;;;;;;19.30;12.63;;;15.90;72.00;;;;;;5114258;27;20459;-80
2022/11/11 08:43:51;;;;;;;24.63;13.10;;;15.60;72.00;;;;;;5116683;27;20472;-81
2022/11/11 08:46:19;;;;;;;20.60;13.07;;;15.70;72.40;;;;;;5113109;28;20464;-79
2022/11/11 08:48:47;;;;;;;28.87;13.20;;;15.50;72.30;;;;;;5104512;28;20456;-80
2022/11/11 08:51:15;;;;;;;27.87;15.17;;;15.60;72.70;;;;;;5103376;28;20444;-81
2022/11/11 08:53:42;;;;;;;24.40;13.80;;;15.80;73.30;;;;;;5114228;28;21017;-80
2022/11/11 08:56:11;;;;;;;26.00;14.70;;;16.00;72.70;;;;;;5114098;28;20467;-77
2022/11/11 08:58:40;;;;;;;20.93;12.27;;;16.00;72.30;;;;;;5108826;28;20452;-78
2022/11/11 09:01:13;;;;;;;21.70;12.60;;;17.00;73.80;;;;;;5110084;28;20443;-77
2022/11/11 09:03:42;;;;;;;22.00;12.50;;;17.70;70.30;;;;;;5121304;28;20508;-78
2022/11/11 09:06:10;;;;;;;18.93;11.17;;;18.30;67.90;;;;;;5108810;28;20475;-78
2022/11/11 09:08:40;;;;;;;18.30;10.80;;;18.70;65.70;;;;;;5108823;28;20440;-78
2022/11/11 09:11:08;;;;;;;22.40;10.53;;;18.90;64.10;;;;;;5109280;28;20447;-77
2022/11/11 09:13:36;;;;;;;13.83;9.20;;;19.10;63.10;;;;;;5104661;28;20476;-78
2022/11/11 09:16:04;;;;;;;17.10;8.93;;;19.30;62.20;;;;;;5105536;28;20452;-78
2022/11/11 09:18:34;;;;;;;16.03;9.00;;;19.40;61.60;;;;;;5113229;28;20448;-78
2022/11/11 09:21:02;;;;;;;14.57;9.10;;;19.50;61.00;;;;;;5113477;28;20871;-78
2022/11/11 09:23:30;;;;;;;16.40;8.13;;;19.60;60.70;;;;;;5113381;28;20464;-78
2022/11/11 09:26:02;;;;;;;15.53;8.40;;;19.70;60.20;;;;;;5112236;28;20497;-78
2022/11/11 09:28:32;;;;;;;15.90;8.27;;;19.70;59.90;;;;;;5120613;28;20499;-79
2022/11/11 09:31:01;;;;;;;10.23;6.73;;;19.80;59.70;;;;;;5110554;28;20497;-80
2022/11/11 09:33:51;;;;;;;11.30;6.93;;;19.80;59.40;;;;;;5112415;28;20464;-80
2022/11/11 09:36:19;;;;;;;14.10;7.40;;;19.90;59.30;;;;;;5125980;28;20452;-80
2022/11/11 09:38:47;;;;;;;10.10;6.77;;;19.90;59.20;;;;;;5123558;28;20455;-80
2022/11/11 09:41:19;;;;;;;11.70;6.50;;;19.90;59.10;;;;;;5113575;28;20455;-80
2022/11/11 09:43:53;;;;;;;14.63;6.27;;;20.00;59.00;;;;;;5115048;28;20475;-80
2022/11/11 09:46:27;;;;;;;11.33;6.63;;;20.00;58.90;;;;;;5103950;28;20473;-81
2022/11/11 09:49:11;;;;;;;7.87;6.10;;;20.00;58.80;;;;;;5111002;28;20451;-80
2022/11/11 09:51:42;;;;;;;10.20;6.27;;;20.00;58.70;;;;;;5118168;28;20839;-80
2022/11/11 09:54:14;;;;;;;9.17;6.70;;;20.00;58.70;;;;;;5102570;28;20815;-81
2022/11/11 09:56:48;;;;;;;10.50;6.20;;;20.00;58.60;;;;;;5117378;27;20435;-80
2022/11/11 09:59:17;;;;;;;9.27;5.60;;;20.10;58.70;;;;;;5119518;27;20504;-81
2022/11/11 10:01:47;;;;;;;7.13;5.23;;;20.10;58.60;;;;;;5112198;28;20443;-80
2022/11/11 10:04:25;;;;;;;10.13;5.80;;;20.10;58.60;;;;;;5112109;27;20479;-80
2022/11/11 10:06:56;;;;;;;10.90;6.00;;;20.10;58.30;;;;;;5121948;27;20471;-80
2022/11/11 10:09:25;;;;;;;6.90;5.30;;;20.10;58.50;;;;;;5117407;28;20457;-80
2022/11/11 10:11:57;;;;;;;7.10;6.07;;;20.10;58.30;;;;;;5116560;27;20509;-80
2022/11/11 10:14:26;;;;;;;9.60;6.17;;;20.20;58.50;;;;;;5117136;27;20467;-81
2022/11/11 10:17:03;;;;;;;6.97;5.60;;;20.20;58.40;;;;;;5120618;28;20448;-79
2022/11/11 10:19:34;;;;;;;7.00;5.60;;;20.20;58.30;;;;;;5127172;27;20472;-80
2022/11/11 10:22:03;;;;;;;10.67;5.67;;;20.20;58.20;;;;;;5122823;27;20448;-80
2022/11/11 10:24:41;;;;;;;7.10;5.87;;;20.20;58.40;;;;;;5125485;27;20475;-79
2022/11/11 10:27:17;;;;;;;6.50;5.40;;;20.20;58.30;;;;;;5116002;27;20513;-79
2022/11/11 10:29:46;;;;;;;6.07;5.17;;;20.30;58.30;;;;;;5124787;27;20461;-79
2022/11/11 10:32:16;;;;;;;8.37;5.50;;;20.20;58.20;;;;;;5107039;28;20481;-79
2022/11/11 10:34:46;;;;;;;9.53;6.37;;;20.30;58.20;;;;;;5121840;27;20467;-79
2022/11/11 10:37:18;;;;;;;6.70;5.77;;;20.30;58.10;;;;;;5121518;27;20443;-79
2022/11/11 10:39:53;;;;;;;7.60;5.33;;;20.30;58.20;;;;;;5106813;27;20455;-79
2022/11/11 10:42:21;;;;;;;8.53;5.60;;;20.30;58.10;;;;;;5106903;28;20447;-81
2022/11/11 10:44:49;;;;;;;7.37;5.50;;;20.30;58.20;;;;;;5131730;27;20494;-80
2022/11/11 10:47:29;;;;;;;8.83;5.87;;;20.30;58.30;;;;;;5140116;27;20473;-79
2022/11/11 10:50:00;;;;;;;7.00;5.27;;;20.30;58.20;;;;;;5112063;27;20449;-79
2022/11/11 10:52:31;;;;;;;8.50;5.80;;;20.30;58.30;;;;;;5116974;27;20464;-79
2022/11/11 10:55:00;;;;;;;8.03;5.40;;;20.30;58.00;;;;;;5129567;27;20467;-80
2022/11/11 10:57:30;;;;;;;9.60;6.30;;;20.30;57.90;;;;;;5124119;27;20489;-81
2022/11/11 11:00:00;;;;;;;6.73;5.57;;;20.20;58.00;;;;;;5127996;27;20439;-81
2022/11/11 11:02:29;;;;;;;6.83;5.80;;;20.30;58.20;;;;;;5126970;27;20489;-79
2022/11/11 11:05:01;;;;;;;9.40;6.00;;;20.30;58.00;;;;;;5116152;27;20471;-80
2022/11/11 11:07:33;;;;;;;9.60;6.20;;;20.30;57.90;;;;;;5122204;27;20460;-80
2022/11/11 11:10:02;;;;;;;9.10;5.63;;;20.30;57.90;;;;;;5123535;27;20456;-81
2022/11/11 11:12:32;;;;;;;6.10;5.50;;;20.30;57.70;;;;;;5113595;28;20452;-81
2022/11/11 11:15:03;;;;;;;7.83;5.90;;;20.30;57.80;;;;;;5112545;27;20467;-80
2022/11/11 11:17:34;;;;;;;7.33;6.13;;;20.30;57.70;;;;;;5120826;27;20447;-81
2022/11/11 11:20:12;;;;;;;8.13;6.00;;;20.30;57.50;;;;;;5119517;27;20450;-81
2022/11/11 11:22:48;;;;;;;7.70;6.53;;;20.30;57.60;;;;;;5120283;27;20443;-81
2022/11/11 11:25:17;;;;;;;7.90;6.20;;;20.40;57.50;;;;;;5114014;28;20471;-81
2022/11/11 11:27:46;;;;;;;7.50;6.33;;;20.30;57.50;;;;;;5116480;28;20515;-80
2022/11/11 11:30:15;;;;;;;10.13;6.60;;;20.40;57.60;;;;;;5118478;27;20451;-84
2022/11/11 11:32:55;;;;;;;7.70;6.30;;;20.40;57.30;;;;;;5119654;27;20451;-84
2022/11/11 11:35:32;;;;;;;9.97;5.83;;;20.40;57.20;;;;;;5118916;27;20462;-83
2022/11/11 11:38:00;;;;;;;7.77;6.30;;;20.50;57.20;;;;;;5126107;27;20930;-83
2022/11/11 11:40:29;;;;;;;9.07;7.70;;;20.60;57.30;;;;;;5120169;27;20458;-82
2022/11/11 11:42:56;;;;;;;9.40;6.50;;;20.70;57.20;;;;;;5126094;27;20512;-81
2022/11/11 11:45:27;;;;;;;10.03;7.50;;;20.90;57.10;;;;;;5123286;27;20466;-81
2022/11/11 11:48:04;;;;;;;6.97;6.10;;;21.00;56.60;;;;;;5116347;27;20484;-79
2022/11/11 11:50:56;;;;;;;8.70;7.03;;;21.20;56.30;;;;;;5111467;28;20481;-82
2022/11/11 11:53:42;;;;;;;8.13;6.53;;;21.40;56.20;;;;;;5123806;27;20466;-82
2022/11/11 11:56:15;;;;;;;8.03;6.70;;;21.60;56.00;;;;;;5113172;27;20452;-82
2022/11/11 11:58:53;;;;;;;7.10;5.80;;;21.90;56.00;;;;;;5125893;27;20451;-82
2022/11/11 12:01:23;;;;;;;8.87;6.53;;;22.20;55.60;;;;;;5125922;27;20443;-82
2022/11/11 12:04:21;;;;;;;6.90;6.20;;;22.50;55.10;;;;;;5119737;27;20471;-82
2022/11/11 12:06:55;;;;;;;6.90;6.20;;;22.90;54.60;;;;;;5114742;27;20467;-82
2022/11/11 12:09:29;;;;;;;7.37;6.60;;;23.30;54.50;;;;;;5119625;27;20447;-79
2022/11/11 12:11:59;;;;;;;6.80;6.10;;;23.70;53.90;;;;;;5124519;27;20481;-80
2022/11/11 12:15:02;;;;;;;6.77;5.90;;;23.90;53.40;;;;;;5119474;27;20445;-78
2022/11/11 12:17:33;;;;;;;7.10;6.10;;;24.20;53.10;;;;;;5113546;27;20446;-80
2022/11/11 12:20:05;;;;;;;8.43;6.70;;;24.50;52.60;;;;;;5123133;27;20554;-81
2022/11/11 12:22:44;;;;;;;8.30;7.20;;;24.70;52.20;;;;;;5127790;27;20430;-81
2022/11/11 12:25:17;;;;;;;9.27;6.30;;;24.80;51.80;;;;;;5122850;27;20442;-80
2022/11/11 12:27:51;;;;;;;6.60;6.00;;;24.90;51.80;;;;;;5118319;27;20466;-80
2022/11/11 12:30:20;;;;;;;7.50;6.10;;;25.10;51.50;;;;;;5118576;27;20460;-80
2022/11/11 12:33:17;;;;;;;6.80;6.20;;;25.40;51.60;;;;;;5121787;27;20566;-80
2022/11/11 12:35:57;;;;;;;5.83;5.23;;;25.70;51.00;;;;;;5121569;27;20454;-81
2022/11/11 12:38:51;;;;;;;6.10;5.50;;;25.90;50.70;;;;;;5124275;27;20458;-81
2022/11/11 12:41:31;;;;;;;6.10;5.43;;;26.10;50.50;;;;;;5123886;27;20423;-80
2022/11/11 12:44:03;;;;;;;5.77;5.20;;;26.30;50.20;;;;;;5121325;27;20442;-81
2022/11/11 12:46:37;;;;;;;5.40;4.87;;;26.50;50.10;;;;;;5115252;27;20451;-81
2022/11/11 12:49:12;;;;;;;5.20;4.80;;;26.60;49.90;;;;;;5114465;28;20463;-81
2022/11/11 12:51:50;;;;;;;5.13;4.63;;;26.80;49.70;;;;;;5120056;28;20459;-81
2022/11/11 12:54:26;;;;;;;4.83;4.43;;;27.00;49.20;;;;;;5120258;27;20447;-81
2022/11/11 12:56:56;;;;;;;4.97;4.40;;;27.20;49.00;;;;;;5118609;28;20459;-81
2022/11/11 12:59:28;;;;;;;4.90;4.33;;;27.20;48.80;;;;;;5130687;28;20414;-81
2022/11/11 13:02:01;;;;;;;5.63;4.77;;;27.20;48.80;;;;;;5120586;28;20448;-81
2022/11/11 13:04:46;;;;;;;5.60;4.93;;;27.30;48.70;;;;;;5120204;27;20472;-80
2022/11/11 13:07:58;;;;;;;4.80;4.30;;;27.30;48.70;;;;;;5111852;28;20450;-80
2022/11/11 13:10:31;;;;;;;5.40;4.90;;;27.40;48.60;;;;;;5072454;28;20487;-81
2022/11/11 13:13:03;;;;;;;7.63;4.50;;;27.60;48.60;;;;;;5122055;28;20470;-81
2022/11/11 13:15:31;;;;;;;5.23;4.83;;;27.60;48.50;;;;;;5120250;27;20489;-81
2022/11/11 13:17:59;;;;;;;5.13;3.83;;;27.60;48.20;;;;;;5119249;28;20435;-82
2022/11/11 13:20:40;;;;;;;5.23;4.60;;;27.60;48.20;;;;;;5119671;28;20499;-81
2022/11/11 13:23:11;;;;;;;4.33;4.00;;;27.60;48.30;;;;;;5118192;28;20457;-81
2022/11/11 13:25:43;;;;;;;4.50;3.80;;;27.40;48.20;;;;;;5122761;28;20430;-80
2022/11/11 13:28:20;;;;;;;5.17;4.30;;;27.40;48.30;;;;;;5123253;28;20540;-80
2022/11/11 13:30:59;;;;;;;4.40;4.07;;;27.30;48.30;;;;;;5122207;27;20444;-80
2022/11/11 13:33:35;;;;;;;5.83;4.30;;;27.20;48.50;;;;;;5122681;27;20961;-81
2022/11/11 13:36:03;;;;;;;5.40;3.90;;;27.00;48.80;;;;;;5123311;27;20432;-81
2022/11/11 13:38:33;;;;;;;4.77;4.20;;;26.90;49.00;;;;;;5129220;27;20421;-80
2022/11/11 13:41:04;;;;;;;4.63;4.23;;;26.80;49.10;;;;;;5126912;27;20433;-81
2022/11/11 13:43:33;;;;;;;3.93;3.70;;;26.80;49.30;;;;;;5129429;27;20453;-81
2022/11/11 13:46:02;;;;;;;3.97;3.60;;;26.80;49.30;;;;;;5127739;27;20838;-81
2022/11/11 13:48:31;;;;;;;3.93;3.63;;;26.70;49.20;;;;;;5134332;27;20441;-80
2022/11/11 13:51:22;;;;;;;3.80;3.53;;;26.70;49.30;;;;;;5129313;27;20429;-81
2022/11/11 13:53:51;;;;;;;4.93;3.93;;;26.70;49.10;;;;;;5128018;27;20447;-81
2022/11/11 13:56:32;;;;;;;4.03;3.63;;;26.50;49.30;;;;;;5129517;27;20458;-81
2022/11/11 13:59:01;;;;;;;4.33;3.97;;;26.30;49.50;;;;;;5126208;27;20423;-81
2022/11/11 14:01:33;;;;;;;3.83;3.60;;;26.10;49.60;;;;;;5122239;27;20440;-80
2022/11/11 14:04:10;;;;;;;3.83;3.57;;;26.00;50.00;;;;;;5121815;27;20504;-81
2022/11/11 14:06:52;;;;;;;4.10;3.70;;;25.80;50.10;;;;;;5124080;27;20448;-82
2022/11/11 14:09:56;;;;;;;4.23;3.90;;;25.70;50.30;;;;;;5127134;27;20438;-82
2022/11/11 14:12:36;;;;;;;4.00;3.73;;;25.60;50.60;;;;;;5127438;27;20421;-81
2022/11/11 14:15:06;;;;;;;3.63;3.13;;;25.50;50.80;;;;;;5124583;27;20475;-82
2022/11/11 14:17:35;;;;;;;3.60;3.30;;;25.30;51.10;;;;;;5129631;27;20504;-81
2022/11/11 14:20:37;;;;;;;3.80;3.40;;;25.30;51.30;;;;;;5126225;27;20443;-81
2022/11/11 14:23:27;;;;;;;4.47;4.07;;;25.20;51.30;;;;;;5126707;27;20422;-81
2022/11/11 14:26:20;;;;;;;3.80;3.57;;;25.10;51.90;;;;;;5127228;27;20448;-81
2022/11/11 14:28:54;;;;;;;6.10;4.17;;;24.90;52.20;;;;;;5121415;27;20449;-81
2022/11/11 14:31:52;;;;;;;4.70;4.30;;;24.80;52.30;;;;;;5125955;27;20448;-82